Time;durP1;ratioP1;P1;durP2;ratioP2;P2;SDS_P1;SDS_P2;PMS_P1;PMS_P2;Temp;Humidity;BMP_temperature;BMP_pressure;BME280_temperature;BME280_humidity;BME280_pressure;Samples;Min_cycle;Max_cycle;Signal;HPM_P1;HPM_P2
2021/03/15 00:00:53;;;;;;;49.03;29.23;;;;;;;;;;4463570;32;20319;-56
2021/03/15 00:03:19;;;;;;;64.23;33.87;;;;;;;;;;4464585;32;20403;-54
2021/03/15 00:05:45;;;;;;;64.40;36.30;;;;;;;;;;4458587;32;20377;-53
2021/03/15 00:08:11;;;;;;;46.57;25.80;;;;;;;;;;4444635;32;20368;-55
2021/03/15 00:10:37;;;;;;;40.77;21.00;;;;;;;;;;4463942;32;20339;-53
2021/03/15 00:13:04;;;;;;;43.80;27.90;;;;;;;;;;4463775;32;20367;-53
2021/03/15 00:15:30;;;;;;;57.37;32.50;;;;;;;;;;4455486;32;20256;-53
2021/03/15 00:17:56;;;;;;;51.40;31.73;;;;;;;;;;4452214;32;20598;-53
2021/03/15 00:20:22;;;;;;;55.47;32.97;;;;;;;;;;4461982;32;20708;-53
2021/03/15 00:22:49;;;;;;;54.00;34.70;;;;;;;;;;4459802;32;20282;-52
2021/03/15 00:25:16;;;;;;;64.07;36.17;;;;;;;;;;4464679;32;20200;-55
2021/03/15 00:27:42;;;;;;;67.80;37.00;;;;;;;;;;4449750;32;20336;-52
2021/03/15 00:30:11;;;;;;;55.87;32.53;;;;;;;;;;4459827;32;20298;-53
2021/03/15 00:32:37;;;;;;;52.80;31.87;;;;;;;;;;4450010;32;20314;-53
2021/03/15 00:35:04;;;;;;;63.33;34.23;;;;;;;;;;4462692;32;20306;-55
2021/03/15 00:37:30;;;;;;;61.80;37.20;;;;;;;;;;4455451;32;20287;-53
2021/03/15 00:39:55;;;;;;;59.87;35.37;;;;;;;;;;4464362;32;20645;-53
2021/03/15 00:42:21;;;;;;;55.23;34.43;;;;;;;;;;4462843;32;20789;-52
2021/03/15 00:44:46;;;;;;;49.83;32.47;;;;;;;;;;4461194;32;20243;-52
2021/03/15 00:47:12;;;;;;;43.70;28.30;;;;;;;;;;4451103;32;20280;-53
2021/03/15 00:49:37;;;;;;;44.53;30.10;;;;;;;;;;4460357;32;20200;-52
2021/03/15 00:52:03;;;;;;;44.40;30.23;;;;;;;;;;4455019;32;20233;-53
2021/03/15 00:54:29;;;;;;;45.27;30.87;;;;;;;;;;4461055;32;20384;-54
2021/03/15 00:56:54;;;;;;;42.90;29.67;;;;;;;;;;4455382;32;20520;-53
2021/03/15 00:59:19;;;;;;;47.60;32.67;;;;;;;;;;4459394;32;20282;-53
2021/03/15 01:01:45;;;;;;;84.40;56.27;;;;;;;;;;4453172;32;20378;-53
2021/03/15 01:04:13;;;;;;;72.20;49.80;;;;;;;;;;4460381;32;20688;-55
2021/03/15 01:06:40;;;;;;;86.17;56.73;;;;;;;;;;4453065;32;20236;-54
2021/03/15 01:09:06;;;;;;;90.63;55.63;;;;;;;;;;4458447;32;20232;-53
2021/03/15 01:11:31;;;;;;;87.33;54.03;;;;;;;;;;4460581;32;20333;-54
2021/03/15 01:13:57;;;;;;;80.00;56.27;;;;;;;;;;4457611;32;20267;-53
2021/03/15 01:16:23;;;;;;;81.27;56.00;;;;;;;;;;4456019;32;20285;-53
2021/03/15 01:18:48;;;;;;;72.63;46.60;;;;;;;;;;4456407;32;20299;-53
2021/03/15 01:21:15;;;;;;;67.83;40.37;;;;;;;;;;4455685;32;20643;-54
2021/03/15 01:23:40;;;;;;;69.40;44.20;;;;;;;;;;4458352;32;20250;-54
2021/03/15 01:26:06;;;;;;;77.97;45.97;;;;;;;;;;4461494;32;20745;-54
2021/03/15 01:28:32;;;;;;;48.30;30.10;;;;;;;;;;4457287;32;20220;-54
2021/03/15 01:30:58;;;;;;;41.47;23.50;;;;;;;;;;4463657;32;20389;-54
2021/03/15 01:33:23;;;;;;;37.33;25.70;;;;;;;;;;4458205;32;20601;-54
2021/03/15 01:35:49;;;;;;;38.00;26.83;;;;;;;;;;4457390;32;20300;-53
2021/03/15 01:38:15;;;;;;;40.17;26.33;;;;;;;;;;4462976;32;20562;-53
2021/03/15 01:40:41;;;;;;;42.93;28.13;;;;;;;;;;4456526;32;20314;-53
2021/03/15 01:43:07;;;;;;;43.63;27.30;;;;;;;;;;4456375;32;20250;-54
2021/03/15 01:45:33;;;;;;;42.13;26.33;;;;;;;;;;4457568;32;20339;-54
2021/03/15 01:48:00;;;;;;;37.20;27.20;;;;;;;;;;4455871;32;20283;-53
2021/03/15 01:50:26;;;;;;;44.40;28.57;;;;;;;;;;4451445;32;20397;-53
2021/03/15 01:52:54;;;;;;;48.40;30.37;;;;;;;;;;4461435;32;20255;-53
2021/03/15 01:55:21;;;;;;;48.80;29.83;;;;;;;;;;4460099;32;20247;-53
2021/03/15 01:57:47;;;;;;;44.63;28.67;;;;;;;;;;4461029;32;20295;-53
2021/03/15 02:00:14;;;;;;;51.30;30.83;;;;;;;;;;4460785;32;20301;-55
2021/03/15 02:02:44;;;;;;;44.43;30.57;;;;;;;;;;4453369;32;20263;-52
2021/03/15 02:05:11;;;;;;;37.40;22.37;;;;;;;;;;4456305;32;20204;-53
2021/03/15 02:07:36;;;;;;;32.73;22.60;;;;;;;;;;4449875;32;20387;-52
2021/03/15 02:10:03;;;;;;;30.17;21.83;;;;;;;;;;4458891;32;20350;-53
2021/03/15 02:13:01;;;;;;;34.27;23.57;;;;;;;;;;4460283;32;20224;-54
2021/03/15 02:15:49;;;;;;;31.77;19.27;;;;;;;;;;4461043;32;20296;-52
2021/03/15 02:18:20;;;;;;;27.73;16.27;;;;;;;;;;4451782;32;20275;-53
2021/03/15 02:21:07;;;;;;;24.97;17.10;;;;;;;;;;4458775;32;20859;-53
2021/03/15 02:23:43;;;;;;;27.13;19.30;;;;;;;;;;4455438;32;20294;-53
2021/03/15 02:26:30;;;;;;;32.20;20.70;;;;;;;;;;4453676;32;20275;-52
2021/03/15 02:29:19;;;;;;;53.80;26.83;;;;;;;;;;4458421;32;20295;-54
2021/03/15 02:31:54;;;;;;;133.70;53.23;;;;;;;;;;4449948;32;20705;-53
2021/03/15 02:34:40;;;;;;;80.50;37.17;;;;;;;;;;4461314;32;20337;-54
2021/03/15 02:37:08;;;;;;;38.60;22.67;;;;;;;;;;4460003;32;20379;-54
2021/03/15 02:39:38;;;;;;;42.53;25.80;;;;;;;;;;4456073;32;20525;-54
2021/03/15 02:42:11;;;;;;;54.57;31.37;;;;;;;;;;4449365;32;20228;-54
2021/03/15 02:44:38;;;;;;;55.80;33.03;;;;;;;;;;4450458;32;20299;-54
2021/03/15 02:47:12;;;;;;;56.50;33.00;;;;;;;;;;4450950;32;20259;-54
2021/03/15 02:49:40;;;;;;;66.27;35.90;;;;;;;;;;4440990;32;20316;-53
2021/03/15 02:52:07;;;;;;;66.77;36.27;;;;;;;;;;4460652;32;20224;-53
2021/03/15 02:54:34;;;;;;;79.17;41.50;;;;;;;;;;4454863;32;20323;-53
2021/03/15 02:57:01;;;;;;;79.40;40.17;;;;;;;;;;4455700;32;20659;-53
2021/03/15 02:59:29;;;;;;;65.47;38.33;;;;;;;;;;4449011;32;20347;-53
2021/03/15 03:01:56;;;;;;;68.27;39.63;;;;;;;;;;4457197;32;20380;-53
2021/03/15 03:04:22;;;;;;;63.03;38.77;;;;;;;;;;4451159;32;20246;-53
2021/03/15 03:06:52;;;;;;;60.90;36.23;;;;;;;;;;4450200;32;20285;-53
2021/03/15 03:09:19;;;;;;;70.23;38.77;;;;;;;;;;4456939;32;20586;-53
2021/03/15 03:11:46;;;;;;;64.13;38.17;;;;;;;;;;4452137;32;20272;-54
2021/03/15 03:14:13;;;;;;;52.93;34.30;;;;;;;;;;4459577;32;20245;-55
2021/03/15 03:16:41;;;;;;;59.57;32.57;;;;;;;;;;4452538;32;20368;-55
2021/03/15 03:19:09;;;;;;;59.57;34.07;;;;;;;;;;4458819;32;20505;-55
2021/03/15 03:21:40;;;;;;;55.60;32.93;;;;;;;;;;4447849;32;20298;-55
2021/03/15 03:24:07;;;;;;;52.80;31.80;;;;;;;;;;4449538;32;20287;-55
2021/03/15 03:26:34;;;;;;;47.83;29.23;;;;;;;;;;4452208;32;20226;-55
2021/03/15 03:28:59;;;;;;;44.63;29.93;;;;;;;;;;4461216;32;20554;-55
2021/03/15 03:31:30;;;;;;;45.57;25.73;;;;;;;;;;4460835;32;20246;-55
2021/03/15 03:33:55;;;;;;;41.77;27.37;;;;;;;;;;4458808;32;20426;-54
2021/03/15 03:36:21;;;;;;;35.53;23.20;;;;;;;;;;4463244;32;20216;-55
2021/03/15 03:38:47;;;;;;;37.90;24.33;;;;;;;;;;4460332;32;20355;-55
2021/03/15 03:41:13;;;;;;;34.30;22.87;;;;;;;;;;4452811;32;20358;-56
2021/03/15 03:43:39;;;;;;;41.03;26.93;;;;;;;;;;4442125;32;20332;-55
2021/03/15 03:46:05;;;;;;;42.13;27.13;;;;;;;;;;4461051;32;20295;-55
2021/03/15 03:48:33;;;;;;;42.43;29.20;;;;;;;;;;4453528;32;20567;-56
2021/03/15 03:50:58;;;;;;;38.63;26.93;;;;;;;;;;4462395;32;20236;-55
2021/03/15 03:53:28;;;;;;;39.00;26.33;;;;;;;;;;4463385;32;20668;-54
2021/03/15 03:56:12;;;;;;;34.63;23.90;;;;;;;;;;4460994;32;20592;-55
2021/03/15 03:58:59;;;;;;;31.47;22.07;;;;;;;;;;4461027;32;20661;-55
2021/03/15 04:01:31;;;;;;;32.03;21.47;;;;;;;;;;4459270;32;20227;-53
2021/03/15 04:03:59;;;;;;;32.87;23.20;;;;;;;;;;4461099;32;20228;-53
2021/03/15 04:06:28;;;;;;;53.23;33.43;;;;;;;;;;4460545;32;20220;-53
2021/03/15 04:09:00;;;;;;;50.17;33.37;;;;;;;;;;4459291;32;20614;-53
2021/03/15 04:11:29;;;;;;;42.53;28.27;;;;;;;;;;4455520;32;20291;-53
2021/03/15 04:13:56;;;;;;;50.23;29.10;;;;;;;;;;4456802;32;20212;-53
2021/03/15 04:16:34;;;;;;;45.23;29.27;;;;;;;;;;4459699;32;20437;-54
2021/03/15 04:19:06;;;;;;;50.93;31.53;;;;;;;;;;4458597;32;20403;-53
2021/03/15 04:21:34;;;;;;;48.50;29.53;;;;;;;;;;4461854;32;20367;-54
2021/03/15 04:24:01;;;;;;;47.57;31.17;;;;;;;;;;4460901;32;20208;-53
2021/03/15 04:26:30;;;;;;;44.17;30.83;;;;;;;;;;4458246;32;20224;-53
2021/03/15 04:28:57;;;;;;;47.40;29.83;;;;;;;;;;4454417;32;20232;-53
2021/03/15 04:31:24;;;;;;;42.83;28.07;;;;;;;;;;4457227;32;20252;-53
2021/03/15 04:33:50;;;;;;;48.50;31.00;;;;;;;;;;4454872;32;20298;-55
2021/03/15 04:36:16;;;;;;;51.17;31.40;;;;;;;;;;4463491;32;20638;-54
2021/03/15 04:38:43;;;;;;;40.43;29.17;;;;;;;;;;4458878;32;20212;-54
2021/03/15 04:41:10;;;;;;;48.40;30.63;;;;;;;;;;4458762;32;20400;-54
2021/03/15 04:43:40;;;;;;;42.87;27.93;;;;;;;;;;4462663;32;20311;-54
2021/03/15 04:46:07;;;;;;;47.47;34.50;;;;;;;;;;4457448;32;20730;-53
2021/03/15 04:48:32;;;;;;;60.40;38.20;;;;;;;;;;4455438;32;20942;-54
2021/03/15 04:51:05;;;;;;;51.67;36.63;;;;;;;;;;4457865;32;20216;-54
2021/03/15 04:53:33;;;;;;;56.77;39.50;;;;;;;;;;4456351;32;20200;-54
2021/03/15 04:56:06;;;;;;;68.80;43.63;;;;;;;;;;4453980;32;20733;-53
2021/03/15 04:58:34;;;;;;;50.37;32.40;;;;;;;;;;4452595;32;20669;-54
2021/03/15 05:01:03;;;;;;;53.27;33.97;;;;;;;;;;4453061;32;20246;-54
2021/03/15 05:03:28;;;;;;;51.80;34.57;;;;;;;;;;4450594;32;20243;-53
2021/03/15 05:05:55;;;;;;;48.83;35.97;;;;;;;;;;4464662;32;20280;-54
2021/03/15 05:08:27;;;;;;;42.83;31.90;;;;;;;;;;4457385;32;20346;-53
2021/03/15 05:10:53;;;;;;;54.03;36.40;;;;;;;;;;4459962;32;20776;-53
2021/03/15 05:13:20;;;;;;;64.30;36.53;;;;;;;;;;4452191;32;20251;-54
2021/03/15 05:15:46;;;;;;;49.80;34.37;;;;;;;;;;4459080;32;20235;-54
2021/03/15 05:18:14;;;;;;;54.17;35.17;;;;;;;;;;4460526;32;20311;-55
2021/03/15 05:20:45;;;;;;;47.57;34.37;;;;;;;;;;4464214;32;20204;-55
2021/03/15 05:23:12;;;;;;;49.77;33.83;;;;;;;;;;4458368;32;20232;-55
2021/03/15 05:25:38;;;;;;;44.70;32.33;;;;;;;;;;4453524;32;20235;-55
2021/03/15 05:28:07;;;;;;;51.77;32.37;;;;;;;;;;4448265;32;20291;-54
2021/03/15 05:30:34;;;;;;;46.87;30.00;;;;;;;;;;4458290;32;20264;-54
2021/03/15 05:33:02;;;;;;;42.70;29.43;;;;;;;;;;4459644;32;20321;-54
2021/03/15 05:35:28;;;;;;;42.57;29.50;;;;;;;;;;4460241;32;20242;-54
2021/03/15 05:37:54;;;;;;;42.60;30.97;;;;;;;;;;4455517;32;20220;-54
2021/03/15 05:40:21;;;;;;;33.27;23.07;;;;;;;;;;4451438;32;20772;-54
2021/03/15 05:43:16;;;;;;;21.87;18.70;;;;;;;;;;4449952;32;20307;-54
2021/03/15 05:46:19;;;;;;;26.00;17.90;;;;;;;;;;4454218;32;20225;-54
2021/03/15 05:48:54;;;;;;;23.07;15.97;;;;;;;;;;4454498;32;20416;-54
2021/03/15 05:51:57;;;;;;;20.27;16.67;;;;;;;;;;4458986;32;20295;-55
2021/03/15 05:54:59;;;;;;;23.70;18.23;;;;;;;;;;4459466;32;20333;-53
2021/03/15 05:57:58;;;;;;;21.87;18.23;;;;;;;;;;4462730;32;20208;-52
2021/03/15 06:00:42;;;;;;;29.13;20.10;;;;;;;;;;4453530;32;20232;-53
2021/03/15 06:03:20;;;;;;;38.00;20.77;;;;;;;;;;4453838;32;20275;-54
2021/03/15 06:05:48;;;;;;;30.73;21.60;;;;;;;;;;4452645;32;20295;-54
2021/03/15 06:08:22;;;;;;;33.13;24.73;;;;;;;;;;4456852;32;20260;-54
2021/03/15 06:11:18;;;;;;;36.33;26.67;;;;;;;;;;4458079;32;20227;-54
2021/03/15 06:13:45;;;;;;;34.43;24.30;;;;;;;;;;4457829;32;20202;-54
2021/03/15 06:16:11;;;;;;;32.80;25.17;;;;;;;;;;4459335;32;20253;-54
2021/03/15 06:18:38;;;;;;;47.73;32.27;;;;;;;;;;4454489;32;20704;-54
2021/03/15 06:21:05;;;;;;;62.97;44.00;;;;;;;;;;4450283;32;20224;-53
2021/03/15 06:23:31;;;;;;;65.87;43.63;;;;;;;;;;4454985;32;20236;-54
2021/03/15 06:25:57;;;;;;;88.70;60.00;;;;;;;;;;4458507;32;20216;-54
2021/03/15 06:28:24;;;;;;;73.73;49.93;;;;;;;;;;4459141;32;20374;-54
2021/03/15 06:30:52;;;;;;;32.10;25.90;;;;;;;;;;4457508;32;20239;-54
2021/03/15 06:33:18;;;;;;;32.30;24.97;;;;;;;;;;4455499;32;20225;-54
2021/03/15 06:35:57;;;;;;;29.70;23.17;;;;;;;;;;4459408;32;20274;-52
2021/03/15 06:38:24;;;;;;;40.60;30.13;;;;;;;;;;4455103;32;20245;-52
2021/03/15 06:40:51;;;;;;;40.20;26.83;;;;;;;;;;4446273;32;20216;-53
2021/03/15 06:43:20;;;;;;;31.97;23.27;;;;;;;;;;4457650;32;20350;-53
2021/03/15 06:45:48;;;;;;;28.60;22.70;;;;;;;;;;4458834;32;20298;-54
2021/03/15 06:48:14;;;;;;;34.03;24.77;;;;;;;;;;4456750;32;20235;-54
2021/03/15 06:50:40;;;;;;;29.93;23.43;;;;;;;;;;4456136;32;20295;-53
2021/03/15 06:53:06;;;;;;;39.60;28.73;;;;;;;;;;4450073;32;20382;-54
2021/03/15 06:55:53;;;;;;;63.67;44.63;;;;;;;;;;4448859;32;20651;-54
2021/03/15 06:58:18;;;;;;;68.17;49.03;;;;;;;;;;4454444;32;20252;-53
2021/03/15 07:00:48;;;;;;;59.63;44.83;;;;;;;;;;4451342;32;20344;-53
2021/03/15 07:03:21;;;;;;;57.30;41.00;;;;;;;;;;4454212;32;20303;-54
2021/03/15 07:05:59;;;;;;;51.67;36.80;;;;;;;;;;4452096;32;20287;-53
2021/03/15 07:08:25;;;;;;;56.57;43.50;;;;;;;;;;4452162;32;20250;-52
2021/03/15 07:10:55;;;;;;;49.87;34.83;;;;;;;;;;4460124;32;20283;-53
2021/03/15 07:13:23;;;;;;;54.77;39.60;;;;;;;;;;4458497;32;20295;-54
2021/03/15 07:15:51;;;;;;;49.17;32.17;;;;;;;;;;4455718;32;20233;-53
2021/03/15 07:18:31;;;;;;;43.17;27.33;;;;;;;;;;4451685;32;20873;-53
2021/03/15 07:21:02;;;;;;;37.00;25.63;;;;;;;;;;4450285;32;20236;-53
2021/03/15 07:23:44;;;;;;;43.73;28.33;;;;;;;;;;4455759;32;20678;-53
2021/03/15 07:26:22;;;;;;;52.77;31.43;;;;;;;;;;4461097;32;20215;-53
2021/03/15 07:28:49;;;;;;;84.50;49.60;;;;;;;;;;4456239;32;20252;-53
2021/03/15 07:31:20;;;;;;;62.33;37.63;;;;;;;;;;4460949;32;20256;-53
2021/03/15 07:34:06;;;;;;;43.97;29.17;;;;;;;;;;4460446;32;20778;-52
2021/03/15 07:36:34;;;;;;;62.23;39.67;;;;;;;;;;4443467;32;20295;-54
2021/03/15 07:39:08;;;;;;;47.20;32.00;;;;;;;;;;4452463;32;20212;-53
2021/03/15 07:41:37;;;;;;;30.93;24.07;;;;;;;;;;4432675;32;20614;-54
2021/03/15 07:44:15;;;;;;;18.80;14.97;;;;;;;;;;4454316;32;20250;-53
2021/03/15 07:46:42;;;;;;;26.47;18.63;;;;;;;;;;4456685;32;20216;-53
2021/03/15 07:49:23;;;;;;;20.47;14.67;;;;;;;;;;4456260;32;20369;-53
2021/03/15 07:52:04;;;;;;;15.43;12.20;;;;;;;;;;4454386;32;20273;-53
2021/03/15 07:54:36;;;;;;;17.47;11.10;;;;;;;;;;4454676;32;20243;-54
2021/03/15 07:57:16;;;;;;;16.27;8.73;;;;;;;;;;4458506;32;20266;-53
2021/03/15 07:59:43;;;;;;;15.00;11.63;;;;;;;;;;4455445;32;20208;-54
2021/03/15 08:02:23;;;;;;;13.10;8.53;;;;;;;;;;4456701;32;20270;-55
2021/03/15 08:04:49;;;;;;;9.70;6.10;;;;;;;;;;4455918;32;20242;-54
2021/03/15 08:07:16;;;;;;;9.47;5.87;;;;;;;;;;4454670;32;20251;-54
2021/03/15 08:09:44;;;;;;;10.80;6.93;;;;;;;;;;4457877;32;20340;-53
2021/03/15 08:12:10;;;;;;;8.77;6.43;;;;;;;;;;4463033;32;20216;-54
2021/03/15 08:14:38;;;;;;;8.63;6.77;;;;;;;;;;4452881;32;20320;-54
2021/03/15 08:17:07;;;;;;;9.57;5.63;;;;;;;;;;4453590;32;20598;-53
2021/03/15 08:19:36;;;;;;;8.10;5.97;;;;;;;;;;4459474;32;20377;-54
2021/03/15 08:22:03;;;;;;;17.83;8.93;;;;;;;;;;4456664;32;20284;-54
2021/03/15 08:24:36;;;;;;;12.67;7.20;;;;;;;;;;4462194;32;20306;-54
2021/03/15 08:27:03;;;;;;;20.17;5.90;;;;;;;;;;4462931;32;20320;-53
2021/03/15 08:29:33;;;;;;;13.23;4.10;;;;;;;;;;4461029;32;20212;-53
2021/03/15 08:32:00;;;;;;;6.43;4.70;;;;;;;;;;4462671;32;20262;-53
2021/03/15 08:34:27;;;;;;;8.20;4.40;;;;;;;;;;4458735;32;20715;-53
2021/03/15 08:36:52;;;;;;;7.70;4.80;;;;;;;;;;4459652;32;20340;-56
2021/03/15 08:39:27;;;;;;;14.70;4.13;;;;;;;;;;4462837;32;20204;-55
2021/03/15 08:42:13;;;;;;;7.60;4.67;;;;;;;;;;4462744;32;20350;-55
2021/03/15 08:44:40;;;;;;;11.90;5.07;;;;;;;;;;4462624;32;20315;-54
2021/03/15 08:47:06;;;;;;;7.20;5.10;;;;;;;;;;4462740;32;20231;-54
2021/03/15 08:49:34;;;;;;;11.23;5.27;;;;;;;;;;4460993;32;20273;-54
2021/03/15 08:51:59;;;;;;;8.07;5.30;;;;;;;;;;4453758;32;20247;-53
2021/03/15 08:54:43;;;;;;;7.47;4.40;;;;;;;;;;4461009;32;20283;-53
2021/03/15 08:57:31;;;;;;;8.53;4.57;;;;;;;;;;4454341;32;20587;-54
2021/03/15 08:59:57;;;;;;;8.47;5.50;;;;;;;;;;4446786;32;20314;-53
2021/03/15 09:02:36;;;;;;;20.10;8.67;;;;;;;;;;4460606;32;20391;-54
2021/03/15 09:05:21;;;;;;;8.70;5.93;;;;;;;;;;4456085;32;20244;-54
2021/03/15 09:07:46;;;;;;;9.47;6.17;;;;;;;;;;4453532;32;20303;-53
2021/03/15 09:10:24;;;;;;;8.23;4.67;;;;;;;;;;4462039;32;20271;-55
2021/03/15 09:13:11;;;;;;;7.03;5.00;;;;;;;;;;4458459;32;21665;-54
2021/03/15 09:15:41;;;;;;;8.67;4.80;;;;;;;;;;4454340;32;20652;-54
2021/03/15 09:18:38;;;;;;;6.13;4.30;;;;;;;;;;4455646;32;20283;-53
2021/03/15 09:21:27;;;;;;;7.37;4.47;;;;;;;;;;4458481;32;20615;-53
2021/03/15 09:23:56;;;;;;;12.47;5.87;;;;;;;;;;4451542;32;20460;-54
2021/03/15 09:26:24;;;;;;;5.60;4.20;;;;;;;;;;4451168;32;20279;-54
2021/03/15 09:28:51;;;;;;;11.53;6.07;;;;;;;;;;4449007;32;20740;-54
2021/03/15 09:31:16;;;;;;;14.50;7.43;;;;;;;;;;4450774;32;20306;-53
2021/03/15 09:33:42;;;;;;;7.27;5.13;;;;;;;;;;4461355;32;20204;-55
2021/03/15 09:36:08;;;;;;;6.60;4.73;;;;;;;;;;4460500;32;20614;-54
2021/03/15 09:38:33;;;;;;;11.20;5.47;;;;;;;;;;4458929;32;20275;-55
2021/03/15 09:40:59;;;;;;;8.63;5.87;;;;;;;;;;4452749;32;20227;-53
2021/03/15 09:43:26;;;;;;;19.57;6.57;;;;;;;;;;4457619;32;20250;-54
2021/03/15 09:46:00;;;;;;;6.57;5.10;;;;;;;;;;4454364;32;20372;-56
2021/03/15 09:48:28;;;;;;;6.30;4.33;;;;;;;;;;4456006;32;20208;-54
2021/03/15 09:50:55;;;;;;;9.27;4.90;;;;;;;;;;4457189;32;20221;-54
2021/03/15 09:53:22;;;;;;;7.93;6.00;;;;;;;;;;4453798;32;20343;-54
2021/03/15 09:55:48;;;;;;;10.97;7.40;;;;;;;;;;4458546;32;20368;-54
2021/03/15 09:58:19;;;;;;;9.17;5.60;;;;;;;;;;4457647;32;20235;-54
2021/03/15 10:00:45;;;;;;;17.63;6.23;;;;;;;;;;4457047;32;20237;-53
2021/03/15 10:03:22;;;;;;;7.67;4.73;;;;;;;;;;4460916;32;20220;-55
2021/03/15 10:05:51;;;;;;;5.40;3.67;;;;;;;;;;4456141;32;20200;-55
2021/03/15 10:08:16;;;;;;;9.07;4.07;;;;;;;;;;4455232;32;20350;-55
2021/03/15 10:10:42;;;;;;;13.57;6.83;;;;;;;;;;4451742;32;20398;-55
2021/03/15 10:13:08;;;;;;;8.20;4.73;;;;;;;;;;4457499;32;20654;-54
2021/03/15 10:15:34;;;;;;;6.23;3.80;;;;;;;;;;4450519;32;20276;-54
2021/03/15 10:18:00;;;;;;;10.40;4.87;;;;;;;;;;4453654;32;20224;-54
2021/03/15 10:20:28;;;;;;;10.37;4.60;;;;;;;;;;4459339;32;20208;-55
2021/03/15 10:22:54;;;;;;;4.70;3.47;;;;;;;;;;4457559;32;20241;-55
2021/03/15 10:25:20;;;;;;;5.97;3.37;;;;;;;;;;4457722;32;20549;-55
2021/03/15 10:27:55;;;;;;;4.40;3.03;;;;;;;;;;4458635;32;20281;-55
2021/03/15 10:30:26;;;;;;;4.93;3.77;;;;;;;;;;4453739;32;20282;-56
2021/03/15 10:32:52;;;;;;;4.20;3.10;;;;;;;;;;4453978;32;20354;-55
2021/03/15 10:35:18;;;;;;;4.20;2.27;;;;;;;;;;4457914;32;20358;-55
2021/03/15 10:37:44;;;;;;;3.63;2.70;;;;;;;;;;4457192;32;20219;-54
2021/03/15 10:40:11;;;;;;;4.73;2.97;;;;;;;;;;4460772;32;20366;-55
2021/03/15 10:42:38;;;;;;;2.23;2.03;;;;;;;;;;4459200;32;20310;-54
2021/03/15 10:45:13;;;;;;;4.83;2.50;;;;;;;;;;4457733;32;20276;-54
2021/03/15 10:47:40;;;;;;;4.07;2.27;;;;;;;;;;4454468;32;20246;-55
2021/03/15 10:50:35;;;;;;;4.10;2.57;;;;;;;;;;4456803;32;20228;-55
2021/03/15 10:53:30;;;;;;;2.10;1.90;;;;;;;;;;4457105;32;20196;-55
2021/03/15 10:55:56;;;;;;;6.97;2.73;;;;;;;;;;4438790;32;20240;-55
2021/03/15 10:58:22;;;;;;;5.10;2.33;;;;;;;;;;4451423;32;20308;-54
2021/03/15 11:00:51;;;;;;;3.67;2.17;;;;;;;;;;4448944;32;20317;-56
2021/03/15 11:03:29;;;;;;;4.03;2.23;;;;;;;;;;4455773;32;20764;-55
2021/03/15 11:06:12;;;;;;;4.57;2.97;;;;;;;;;;4462345;32;20291;-55
2021/03/15 11:08:38;;;;;;;8.63;5.67;;;;;;;;;;4450397;32;20212;-54
2021/03/15 11:11:12;;;;;;;3.17;2.30;;;;;;;;;;4447592;32;20338;-54
2021/03/15 11:13:50;;;;;;;3.20;2.50;;;;;;;;;;4453433;32;20246;-54
2021/03/15 11:16:30;;;;;;;6.50;4.10;;;;;;;;;;4463114;32;20243;-54
2021/03/15 11:19:05;;;;;;;3.23;2.90;;;;;;;;;;4455187;32;20200;-54
2021/03/15 11:21:32;;;;;;;8.67;5.83;;;;;;;;;;4458730;32;20212;-54
2021/03/15 11:23:59;;;;;;;336.47;188.93;;;;;;;;;;4455693;32;20275;-54
2021/03/15 11:26:25;;;;;;;97.43;67.83;;;;;;;;;;4454854;32;20271;-54
2021/03/15 11:28:57;;;;;;;87.47;64.67;;;;;;;;;;4454558;32;20211;-54
2021/03/15 11:31:27;;;;;;;104.77;65.77;;;;;;;;;;4461441;32;20228;-54
2021/03/15 11:33:57;;;;;;;107.07;70.13;;;;;;;;;;4457701;32;20243;-53
2021/03/15 11:36:25;;;;;;;23.87;15.37;;;;;;;;;;4461030;32;20216;-54
2021/03/15 11:38:55;;;;;;;120.83;68.70;;;;;;;;;;4460132;32;20262;-54
2021/03/15 11:41:23;;;;;;;38.47;26.17;;;;;;;;;;4453320;32;20247;-54
2021/03/15 11:43:49;;;;;;;22.90;12.57;;;;;;;;;;4458344;32;20421;-53
2021/03/15 11:46:15;;;;;;;82.13;48.37;;;;;;;;;;4450477;32;20622;-53
2021/03/15 11:48:41;;;;;;;318.13;138.73;;;;;;;;;;4456059;32;20258;-54
2021/03/15 11:51:07;;;;;;;404.67;167.00;;;;;;;;;;4464811;32;20283;-55
2021/03/15 11:53:33;;;;;;;460.03;226.23;;;;;;;;;;4461919;32;20197;-54
2021/03/15 11:55:58;;;;;;;218.63;113.80;;;;;;;;;;4465481;32;20216;-54
2021/03/15 11:58:24;;;;;;;453.93;252.73;;;;;;;;;;4460094;32;20279;-54
2021/03/15 12:00:50;;;;;;;670.13;405.67;;;;;;;;;;4465117;32;20274;-54
2021/03/15 12:03:15;;;;;;;773.03;485.63;;;;;;;;;;4463597;32;20299;-62
2021/03/15 12:05:41;;;;;;;71.13;46.60;;;;;;;;;;4463279;32;20306;-63
2021/03/15 12:08:06;;;;;;;40.83;27.50;;;;;;;;;;4464365;32;20325;-61
2021/03/15 12:10:36;;;;;;;30.27;18.37;;;;;;;;;;4459889;32;20771;-61
2021/03/15 12:13:02;;;;;;;31.90;20.43;;;;;;;;;;4455167;32;20624;-62
2021/03/15 12:15:27;;;;;;;23.80;14.83;;;;;;;;;;4464872;32;20291;-63
2021/03/15 12:17:52;;;;;;;13.27;9.50;;;;;;;;;;4463610;32;20276;-64
2021/03/15 12:20:18;;;;;;;12.37;8.90;;;;;;;;;;4463434;32;20303;-62
2021/03/15 12:22:46;;;;;;;10.67;7.77;;;;;;;;;;4463711;32;20238;-67
2021/03/15 12:25:12;;;;;;;11.53;8.20;;;;;;;;;;4462424;32;20270;-62
2021/03/15 12:27:37;;;;;;;12.70;8.80;;;;;;;;;;4463452;32;20227;-63
2021/03/15 12:30:04;;;;;;;17.47;9.93;;;;;;;;;;4457467;32;20398;-63
2021/03/15 12:32:29;;;;;;;14.67;6.70;;;;;;;;;;4458170;32;20330;-63
2021/03/15 12:34:55;;;;;;;10.30;7.37;;;;;;;;;;4436024;32;20398;-63
2021/03/15 12:37:21;;;;;;;14.03;8.63;;;;;;;;;;4459437;32;20215;-65
2021/03/15 12:39:48;;;;;;;25.97;14.27;;;;;;;;;;4453882;32;20313;-63
2021/03/15 12:42:18;;;;;;;13.37;7.57;;;;;;;;;;4464101;32;20675;-55
2021/03/15 12:44:45;;;;;;;8.93;6.37;;;;;;;;;;4455731;32;20223;-55
2021/03/15 12:47:12;;;;;;;12.13;7.20;;;;;;;;;;4464690;32;20243;-55
2021/03/15 12:49:47;;;;;;;6.63;4.47;;;;;;;;;;4457422;32;20367;-56
2021/03/15 12:52:13;;;;;;;9.10;4.93;;;;;;;;;;4447280;32;20247;-55
2021/03/15 12:54:41;;;;;;;2.73;2.00;;;;;;;;;;4463297;32;20303;-54
2021/03/15 12:57:07;;;;;;;11.57;4.73;;;;;;;;;;4464354;32;20417;-55
2021/03/15 12:59:32;;;;;;;12.93;7.57;;;;;;;;;;4458657;32;20204;-54
2021/03/15 13:01:58;;;;;;;22.80;13.10;;;;;;;;;;4457025;32;20393;-54
2021/03/15 13:04:23;;;;;;;18.97;10.03;;;;;;;;;;4460908;32;20681;-54
2021/03/15 13:06:49;;;;;;;12.00;7.80;;;;;;;;;;4464362;32;20589;-53
2021/03/15 13:09:15;;;;;;;18.20;9.27;;;;;;;;;;4464262;32;20625;-53
2021/03/15 13:11:40;;;;;;;10.60;5.43;;;;;;;;;;4456933;32;20569;-53
2021/03/15 13:14:06;;;;;;;10.83;6.77;;;;;;;;;;4463104;32;20299;-54
2021/03/15 13:16:32;;;;;;;16.90;8.87;;;;;;;;;;4453138;32;20290;-55
2021/03/15 13:18:57;;;;;;;7.57;5.30;;;;;;;;;;4458554;32;20205;-54
2021/03/15 13:21:23;;;;;;;11.10;6.60;;;;;;;;;;4452850;32;20308;-53
2021/03/15 13:23:48;;;;;;;11.93;6.20;;;;;;;;;;4455876;32;20212;-54
2021/03/15 13:26:14;;;;;;;15.43;8.10;;;;;;;;;;4464511;32;20217;-53
2021/03/15 13:28:40;;;;;;;10.90;5.83;;;;;;;;;;4456601;32;20246;-54
2021/03/15 13:31:05;;;;;;;11.03;5.27;;;;;;;;;;4449311;32;20244;-54
2021/03/15 13:33:31;;;;;;;7.10;3.90;;;;;;;;;;4463992;32;20246;-53
2021/03/15 13:35:59;;;;;;;7.50;5.50;;;;;;;;;;4464120;32;20211;-53
2021/03/15 13:38:24;;;;;;;14.70;5.83;;;;;;;;;;4462655;32;20238;-54
2021/03/15 13:40:50;;;;;;;20.87;12.30;;;;;;;;;;4458744;32;20411;-54
2021/03/15 13:43:15;;;;;;;14.63;8.43;;;;;;;;;;4463782;32;20266;-54
2021/03/15 13:45:42;;;;;;;9.23;6.00;;;;;;;;;;4459961;32;20279;-54
2021/03/15 13:48:08;;;;;;;5.37;4.27;;;;;;;;;;4463117;32;20236;-53
2021/03/15 13:50:34;;;;;;;7.67;5.17;;;;;;;;;;4460259;32;20314;-53
2021/03/15 13:53:00;;;;;;;6.87;4.60;;;;;;;;;;4456031;32;20276;-54
2021/03/15 13:55:26;;;;;;;6.77;4.47;;;;;;;;;;4454918;32;21272;-54
2021/03/15 13:57:53;;;;;;;10.93;7.63;;;;;;;;;;4455485;32;20224;-53
2021/03/15 14:00:19;;;;;;;13.13;7.43;;;;;;;;;;4462210;32;20212;-54
2021/03/15 14:02:44;;;;;;;18.03;11.07;;;;;;;;;;4461508;32;20267;-53
2021/03/15 14:05:11;;;;;;;25.03;16.83;;;;;;;;;;4463333;32;20724;-53
2021/03/15 14:07:36;;;;;;;35.83;21.17;;;;;;;;;;4455122;32;20311;-53
2021/03/15 14:10:04;;;;;;;34.30;20.37;;;;;;;;;;4452107;32;20706;-53
2021/03/15 14:12:30;;;;;;;23.30;14.77;;;;;;;;;;4456496;32;20216;-53
2021/03/15 14:14:55;;;;;;;25.50;16.33;;;;;;;;;;4463304;32;20333;-54
2021/03/15 14:17:21;;;;;;;21.77;13.00;;;;;;;;;;4456272;32;20300;-53
2021/03/15 14:19:46;;;;;;;11.70;8.40;;;;;;;;;;4459254;32;20796;-52
2021/03/15 14:22:12;;;;;;;16.77;9.03;;;;;;;;;;4452704;32;20736;-55
2021/03/15 14:24:37;;;;;;;18.13;9.97;;;;;;;;;;4462517;32;20280;-53
2021/03/15 14:27:03;;;;;;;19.63;10.73;;;;;;;;;;4457842;32;20393;-53
2021/03/15 14:29:28;;;;;;;11.53;7.73;;;;;;;;;;4450401;32;20395;-53
2021/03/15 14:31:54;;;;;;;13.63;8.53;;;;;;;;;;4446453;32;20240;-54
2021/03/15 14:34:19;;;;;;;18.53;10.80;;;;;;;;;;4450198;32;20256;-53
2021/03/15 14:36:45;;;;;;;12.37;8.33;;;;;;;;;;4460472;32;20310;-54